首页
METAR-TAF:

METAR-TAF

机场 :

Illinois Valley Regional Airport (Walter A. Duncan Field)

秘鲁 / LaSalle, 伊利诺伊州, 美国

纬度: 41-21-07N, 经度: 089-09-11W, 海拔: 199米

当前天气观测

该预报发布于17分钟前的20:35 UTC
风速8节,风向西北
温度 22°C
湿度 50%
气压 1018 hPa
能見度: 16.1公里
天空无云

METAR: KVYS 232035Z AUTO 31008KT 10SM CLR 22/11 A3005 RMK AO2 T02210106

时间: 15:52 (20:52 UTC)


TAF: 丢失

超过4000个机场的气象观测和天气预报(METAR&TAF报告)。

可查询的气象台以黄色和红色小点在地图上表示。

将鼠标移到小点上方,可查看气象台名称。

然后点击查看天气观测和预报。

如需切换地图:点击带黑十字的绿色按钮放大地图;点击带横线的绿色按钮缩小地图;或者点击绿色箭头查看邻近地区的地图。


METAR-TAF: